Time;durP1;ratioP1;P1;durP2;ratioP2;P2;SDS_P1;SDS_P2;PMS_P1;PMS_P2;Temp;Humidity;BMP_temperature;BMP_pressure;BME280_temperature;BME280_humidity;BME280_pressure;Samples;Min_cycle;Max_cycle;Signal;HPM_P1;HPM_P2
2024/04/20 00:00:03;;;;;;;;;;;16.80;54.30;;;;;;5487902;26;20555;-75
2024/04/20 00:02:29;;;;;;;;;;;16.70;54.80;;;;;;5487634;26;19928;-75
2024/04/20 00:04:54;;;;;;;;;;;16.70;54.50;;;;;;5487925;26;20068;-75
2024/04/20 00:07:20;;;;;;;;;;;16.70;54.10;;;;;;5487844;26;19935;-75
2024/04/20 00:09:45;;;;;;;;;;;16.80;54.20;;;;;;5487977;26;19928;-75
2024/04/20 00:12:11;;;;;;;;;;;16.70;53.90;;;;;;5488055;26;19955;-75
2024/04/20 00:14:36;;;;;;;;;;;16.80;54.20;;;;;;5488140;26;19928;-75
2024/04/20 00:17:02;;;;;;;;;;;16.80;53.90;;;;;;5488149;26;19969;-75
2024/04/20 00:19:27;;;;;;;;;;;16.80;54.30;;;;;;5488068;26;20386;-75
2024/04/20 00:21:53;;;;;;;;;;;16.80;54.30;;;;;;5488146;26;19954;-75
2024/04/20 00:24:19;;;;;;;;;;;16.80;54.10;;;;;;5487863;26;19956;-75
2024/04/20 00:26:44;;;;;;;;;;;16.80;54.10;;;;;;5487821;26;20012;-75
2024/04/20 00:29:11;;;;;;;;;;;16.70;54.20;;;;;;5487520;26;20000;-75
2024/04/20 00:31:36;;;;;;;;;;;16.80;54.50;;;;;;5487613;26;19959;-75
2024/04/20 00:34:02;;;;;;;;;;;16.80;54.20;;;;;;5487727;26;19928;-75
2024/04/20 00:36:27;;;;;;;;;;;14.90;53.30;;;;;;5487492;26;19955;-75
2024/04/20 00:38:54;;;;;;;;;;;16.80;54.30;;;;;;5485464;26;19928;-75
2024/04/20 00:41:19;;;;;;;;;;;16.80;54.20;;;;;;5487699;26;20017;-75
2024/04/20 00:43:45;;;;;;;;;;;16.70;54.20;;;;;;5487123;26;19935;-75
2024/04/20 00:46:10;;;;;;;;;;;16.70;54.10;;;;;;5487407;26;20008;-75
2024/04/20 00:48:36;;;;;;;;;;;16.30;54.00;;;;;;5487218;26;20371;-75
2024/04/20 00:51:02;;;;;;;;;;;16.40;54.20;;;;;;5487688;26;19977;-75
2024/04/20 00:53:27;;;;;;;;;;;16.80;53.90;;;;;;5487160;26;19934;-75
2024/04/20 00:55:53;;;;;;;;;;;16.70;54.20;;;;;;5487476;26;19977;-75
2024/04/20 00:58:19;;;;;;;;;;;16.80;54.30;;;;;;5487317;26;19940;-75
2024/04/20 01:00:45;;;;;;;;;;;16.70;54.20;;;;;;5485321;26;19928;-75
2024/04/20 01:03:11;;;;;;;;;;;16.70;54.30;;;;;;5487044;26;19939;-75
2024/04/20 01:05:37;;;;;;;;;;;16.70;54.20;;;;;;5487341;26;20060;-75
2024/04/20 01:08:03;;;;;;;;;;;16.70;54.10;;;;;;5486517;26;19927;-75
2024/04/20 01:10:29;;;;;;;;;;;16.70;53.90;;;;;;5488986;26;19936;-75
2024/04/20 01:13:02;;;;;;;;;;;16.80;54.20;;;;;;5490297;26;19928;-75
2024/04/20 01:15:27;;;;;;;;;;;16.70;52.40;;;;;;5490282;26;20356;-75
2024/04/20 01:17:53;;;;;;;;;;;16.80;54.40;;;;;;5490212;26;19928;-74
2024/04/20 01:20:18;;;;;;;;;;;16.70;54.40;;;;;;5488895;26;19928;-74
2024/04/20 01:22:45;;;;;;;;;;;16.80;54.30;;;;;;5490186;26;19927;-75
2024/04/20 01:25:11;;;;;;;;;;;16.70;54.50;;;;;;5490244;26;20313;-75
2024/04/20 01:27:37;;;;;;;;;;;16.80;54.30;;;;;;5490175;26;19928;-75
2024/04/20 01:30:03;;;;;;;;;;;16.70;54.40;;;;;;5490436;26;19939;-75
2024/04/20 01:32:29;;;;;;;;;;;16.70;54.10;;;;;;5489884;26;19928;-75
2024/04/20 01:34:54;;;;;;;;;;;16.80;54.40;;;;;;5490383;26;19928;-75
2024/04/20 01:37:20;;;;;;;;;;;16.70;54.50;;;;;;5490314;26;19927;-75
2024/04/20 01:39:45;;;;;;;;;;;16.70;54.50;;;;;;5488468;26;19936;-75
2024/04/20 01:42:11;;;;;;;;;;;16.70;54.30;;;;;;5490511;26;19928;-74
2024/04/20 01:44:37;;;;;;;;;;;16.70;54.50;;;;;;5490086;26;19935;-75
2024/04/20 01:47:02;;;;;;;;;;;16.70;54.40;;;;;;5490363;26;19939;-75
2024/04/20 01:49:28;;;;;;;;;;;16.70;54.10;;;;;;5489719;26;19968;-74
2024/04/20 01:51:53;;;;;;;;;;;16.70;54.40;;;;;;5489963;26;19964;-75
2024/04/20 01:54:19;;;;;;;;;;;16.70;54.00;;;;;;5490008;26;19940;-75
2024/04/20 01:56:44;;;;;;;;;;;16.60;55.20;;;;;;5489661;26;20338;-75
2024/04/20 01:59:10;;;;;;;;;;;16.60;54.30;;;;;;5487985;26;19934;-75
2024/04/20 02:01:37;;;;;;;;;;;16.70;54.40;;;;;;5489495;26;19940;-75
2024/04/20 02:04:03;;;;;;;;;;;16.70;54.40;;;;;;5489346;26;19928;-75
2024/04/20 02:06:28;;;;;;;;;;;16.60;54.30;;;;;;5489092;26;20047;-75
2024/04/20 02:08:54;;;;;;;;;;;16.70;54.80;;;;;;5489844;26;19935;-75
2024/04/20 02:11:19;;;;;;;;;;;16.60;54.50;;;;;;5490035;26;20418;-75
2024/04/20 02:13:45;;;;;;;;;;;16.60;54.00;;;;;;5489935;26;19928;-75
2024/04/20 02:16:10;;;;;;;;;;;16.70;54.60;;;;;;5490133;26;19935;-75
2024/04/20 02:18:36;;;;;;;;;;;16.60;54.60;;;;;;5489680;26;19936;-75
2024/04/20 02:21:03;;;;;;;;;;;16.30;54.30;;;;;;5489471;26;19939;-75
2024/04/20 02:23:29;;;;;;;;;;;16.60;54.40;;;;;;5489374;26;19935;-75
2024/04/20 02:25:54;;;;;;;;;;;16.60;54.80;;;;;;5489439;26;20298;-75
2024/04/20 02:28:20;;;;;;;;;;;16.60;53.70;;;;;;5489187;26;19927;-75
2024/04/20 02:30:45;;;;;;;;;;;16.60;54.40;;;;;;5489273;26;19928;-75
2024/04/20 02:33:11;;;;;;;;;;;16.60;54.50;;;;;;5489142;26;19928;-75
2024/04/20 02:35:39;;;;;;;;;;;16.60;54.60;;;;;;5489258;26;19940;-75
2024/04/20 02:38:05;;;;;;;;;;;16.60;52.80;;;;;;5489118;26;19935;-75
2024/04/20 02:40:30;;;;;;;;;;;16.60;54.60;;;;;;5489270;26;19956;-75
2024/04/20 02:42:56;;;;;;;;;;;16.60;54.60;;;;;;5489123;26;19928;-75
2024/04/20 02:45:22;;;;;;;;;;;16.60;54.70;;;;;;5489636;26;19928;-71
2024/04/20 02:47:47;;;;;;;;;;;16.00;54.10;;;;;;5489007;26;19940;-71
2024/04/20 02:50:13;;;;;;;;;;;16.60;54.40;;;;;;5489152;26;19960;-71
2024/04/20 02:52:38;;;;;;;;;;;16.60;54.50;;;;;;5489060;26;19928;-71
2024/04/20 02:55:04;;;;;;;;;;;16.70;54.00;;;;;;5489325;26;19928;-71
2024/04/20 02:57:29;;;;;;;;;;;16.50;53.60;;;;;;5489083;26;19996;-72
2024/04/20 02:59:55;;;;;;;;;;;16.60;54.40;;;;;;5489400;26;19927;-72
2024/04/20 03:02:20;;;;;;;;;;;16.60;54.00;;;;;;5488782;26;19940;-72
2024/04/20 03:04:46;;;;;;;;;;;16.60;54.40;;;;;;5489023;26;19928;-71
2024/04/20 03:07:11;;;;;;;;;;;16.60;53.90;;;;;;5488459;26;19928;-72
2024/04/20 03:09:37;;;;;;;;;;;16.10;54.20;;;;;;5488527;26;19935;-71
2024/04/20 03:12:02;;;;;;;;;;;16.60;54.40;;;;;;5488767;26;19928;-71
2024/04/20 03:14:28;;;;;;;;;;;16.50;54.10;;;;;;5489105;26;19928;-71
2024/04/20 03:16:53;;;;;;;;;;;16.50;54.40;;;;;;5488389;26;19928;-72
2024/04/20 03:19:19;;;;;;;;;;;16.60;54.30;;;;;;5488716;26;19935;-72
2024/04/20 03:21:44;;;;;;;;;;;16.50;54.20;;;;;;5488687;26;19935;-72
2024/04/20 03:24:10;;;;;;;;;;;16.50;54.40;;;;;;5488456;26;19928;-71
2024/04/20 03:26:35;;;;;;;;;;;16.50;54.70;;;;;;5488762;26;19928;-71
2024/04/20 03:29:01;;;;;;;;;;;16.50;54.60;;;;;;5488203;26;19928;-71
2024/04/20 03:31:26;;;;;;;;;;;16.50;54.60;;;;;;5488076;26;19928;-71
2024/04/20 03:33:58;;;;;;;;;;;16.50;54.40;;;;;;5487542;26;19935;-71
2024/04/20 03:36:23;;;;;;;;;;;16.50;52.70;;;;;;5488601;26;19936;-71
2024/04/20 03:38:49;;;;;;;;;;;16.50;54.70;;;;;;5488321;26;19939;-71
2024/04/20 03:41:14;;;;;;;;;;;16.50;54.80;;;;;;5489008;26;19949;-71
2024/04/20 03:43:40;;;;;;;;;;;16.50;54.60;;;;;;5486612;26;19928;-71
2024/04/20 03:46:05;;;;;;;;;;;16.80;54.70;;;;;;5488159;26;19928;-71
2024/04/20 03:48:32;;;;;;;;;;;16.50;54.50;;;;;;5488147;26;19936;-71
2024/04/20 03:50:59;;;;;;;;;;;16.50;54.50;;;;;;5488316;26;19935;-71
2024/04/20 03:53:25;;;;;;;;;;;16.50;53.80;;;;;;5487868;26;20381;-71
2024/04/20 03:55:53;;;;;;;;;;;16.50;55.20;;;;;;5488096;26;19928;-71
2024/04/20 03:58:19;;;;;;;;;;;16.50;52.50;;;;;;5485933;26;20367;-71
2024/04/20 04:00:45;;;;;;;;;;;16.50;54.60;;;;;;5487950;26;19929;-71
2024/04/20 04:03:15;;;;;;;;;;;16.40;54.40;;;;;;5487802;26;19935;-71
2024/04/20 04:05:40;;;;;;;;;;;16.50;54.40;;;;;;5487830;26;20677;-71
2024/04/20 04:08:06;;;;;;;;;;;16.50;54.50;;;;;;5487639;26;19936;-71
2024/04/20 04:10:33;;;;;;;;;;;16.40;53.70;;;;;;5487520;26;20310;-71
2024/04/20 04:13:03;;;;;;;;;;;16.40;54.30;;;;;;5487793;26;19940;-71
2024/04/20 04:15:28;;;;;;;;;;;16.40;54.50;;;;;;5487715;26;19957;-71
2024/04/20 04:17:54;;;;;;;;;;;16.40;54.30;;;;;;5486088;26;19932;-71
2024/04/20 04:20:19;;;;;;;;;;;16.40;54.20;;;;;;5488014;26;19936;-71
2024/04/20 04:22:45;;;;;;;;;;;16.40;54.50;;;;;;5487845;26;19932;-71
2024/04/20 04:25:10;;;;;;;;;;;16.40;54.70;;;;;;5487677;26;19965;-71
2024/04/20 04:27:36;;;;;;;;;;;16.40;54.70;;;;;;5487482;26;19971;-71
2024/04/20 04:30:01;;;;;;;;;;;16.40;54.70;;;;;;5487569;26;19935;-71
2024/04/20 04:32:27;;;;;;;;;;;16.40;54.70;;;;;;5485311;26;20378;-71
2024/04/20 04:34:52;;;;;;;;;;;16.40;54.80;;;;;;5487264;26;19928;-72
2024/04/20 04:37:17;;;;;;;;;;;16.40;54.60;;;;;;5487626;26;19996;-71
2024/04/20 04:39:43;;;;;;;;;;;16.40;54.80;;;;;;5487609;26;20266;-71
2024/04/20 04:42:08;;;;;;;;;;;16.40;54.80;;;;;;5487720;26;19928;-71
2024/04/20 04:44:37;;;;;;;;;;;16.40;54.90;;;;;;5485502;26;19935;-71
2024/04/20 04:47:03;;;;;;;;;;;16.40;54.80;;;;;;5487145;26;19935;-71
2024/04/20 04:49:28;;;;;;;;;;;16.40;54.70;;;;;;5486836;26;19932;-71
2024/04/20 04:51:54;;;;;;;;;;;16.40;55.30;;;;;;5487236;26;20025;-71
2024/04/20 04:54:19;;;;;;;;;;;16.40;54.00;;;;;;5486945;26;20278;-71
2024/04/20 04:56:45;;;;;;;;;;;16.40;55.10;;;;;;5486970;26;20026;-71
2024/04/20 04:59:10;;;;;;;;;;;16.40;54.70;;;;;;5487158;26;19939;-71
2024/04/20 05:01:37;;;;;;;;;;;16.40;55.00;;;;;;5486950;26;19935;-71
2024/04/20 05:04:03;;;;;;;;;;;16.40;54.80;;;;;;5486915;26;19932;-71
2024/04/20 05:06:32;;;;;;;;;;;16.40;54.70;;;;;;5485205;26;19939;-71
2024/04/20 05:08:57;;;;;;;;;;;16.30;53.20;;;;;;5487152;26;19936;-71
2024/04/20 05:11:23;;;;;;;;;;;16.40;54.80;;;;;;5486791;26;20369;-71
2024/04/20 05:13:48;;;;;;;;;;;16.40;54.90;;;;;;5486704;26;19928;-71
2024/04/20 05:16:14;;;;;;;;;;;16.40;54.80;;;;;;5487255;26;19960;-71
2024/04/20 05:18:40;;;;;;;;;;;16.40;54.80;;;;;;5486611;26;20374;-72
2024/04/20 05:21:05;;;;;;;;;;;16.40;54.90;;;;;;5486840;26;19939;-71
2024/04/20 05:23:31;;;;;;;;;;;16.40;54.70;;;;;;5488070;26;19932;-72
2024/04/20 05:25:56;;;;;;;;;;;16.40;54.80;;;;;;5487450;26;19978;-70
2024/04/20 05:28:24;;;;;;;;;;;16.40;54.80;;;;;;5486876;26;19940;-71
2024/04/20 05:30:49;;;;;;;;;;;16.40;54.70;;;;;;5486480;26;20439;-70
2024/04/20 05:33:15;;;;;;;;;;;16.40;54.90;;;;;;5486249;26;19943;-70
2024/04/20 05:35:41;;;;;;;;;;;16.40;54.80;;;;;;5486845;26;19996;-71
2024/04/20 05:38:06;;;;;;;;;;;16.30;55.60;;;;;;5486338;26;19967;-70
2024/04/20 05:40:35;;;;;;;;;;;16.30;55.00;;;;;;5486551;26;19940;-70
2024/04/20 05:43:01;;;;;;;;;;;16.30;55.00;;;;;;5486364;26;19940;-70
2024/04/20 05:45:26;;;;;;;;;;;16.30;55.00;;;;;;5486579;26;19928;-71
2024/04/20 05:47:52;;;;;;;;;;;16.30;54.90;;;;;;5486073;26;20348;-70
2024/04/20 05:50:18;;;;;;;;;;;16.30;55.00;;;;;;5486358;26;19928;-70
2024/04/20 05:52:43;;;;;;;;;;;16.40;55.20;;;;;;5486319;26;19928;-70
2024/04/20 05:55:09;;;;;;;;;;;16.20;54.80;;;;;;5486696;26;19952;-70
2024/04/20 05:57:34;;;;;;;;;;;16.40;55.20;;;;;;5490052;26;19930;-72
2024/04/20 06:00:00;;;;;;;;;;;16.40;55.00;;;;;;5489707;26;19935;-71
2024/04/20 06:02:27;;;;;;;;;;;16.40;55.20;;;;;;5489856;26;19928;-71
2024/04/20 06:04:55;;;;;;;;;;;16.40;55.20;;;;;;5489787;26;19935;-72
2024/04/20 06:07:21;;;;;;;;;;;16.50;55.40;;;;;;5489566;26;19928;-75
2024/04/20 06:09:46;;;;;;;;;;;16.40;55.60;;;;;;5489184;26;20411;-74
2024/04/20 06:12:12;;;;;;;;;;;16.40;55.50;;;;;;5489308;26;20002;-75
2024/04/20 06:14:38;;;;;;;;;;;16.40;55.50;;;;;;5489628;26;19956;-74
2024/04/20 06:17:04;;;;;;;;;;;16.40;55.50;;;;;;5489203;26;19946;-75
2024/04/20 06:19:30;;;;;;;;;;;16.50;55.60;;;;;;5489338;26;19932;-74
2024/04/20 06:21:56;;;;;;;;;;;16.50;55.60;;;;;;5489667;26;19928;-71
2024/04/20 06:24:22;;;;;;;;;;;16.50;55.70;;;;;;5489457;26;19928;-71
2024/04/20 06:26:48;;;;;;;;;;;16.10;55.30;;;;;;5489432;26;20004;-71
2024/04/20 06:29:14;;;;;;;;;;;16.60;55.80;;;;;;5489023;26;19928;-71
2024/04/20 06:31:40;;;;;;;;;;;16.50;55.50;;;;;;5489202;26;19928;-71
2024/04/20 06:34:06;;;;;;;;;;;16.50;55.50;;;;;;5489057;26;19954;-71
2024/04/20 06:36:32;;;;;;;;;;;16.50;55.40;;;;;;5488926;26;19927;-71
2024/04/20 06:38:58;;;;;;;;;;;16.50;55.60;;;;;;5488871;26;20284;-72
2024/04/20 06:41:24;;;;;;;;;;;16.70;55.60;;;;;;5488761;26;19931;-71
2024/04/20 06:43:52;;;;;;;;;;;16.50;55.50;;;;;;5488848;26;19928;-71
2024/04/20 06:46:18;;;;;;;;;;;16.50;55.50;;;;;;5488811;26;19934;-71
2024/04/20 06:48:44;;;;;;;;;;;16.50;55.30;;;;;;5488417;26;19928;-71
2024/04/20 06:51:10;;;;;;;;;;;16.60;54.40;;;;;;5489493;26;19996;-71
2024/04/20 06:53:36;;;;;;;;;;;16.60;54.80;;;;;;5488411;26;19936;-71
2024/04/20 06:56:02;;;;;;;;;;;16.50;55.40;;;;;;5488512;26;19996;-71
2024/04/20 06:58:28;;;;;;;;;;;16.40;55.10;;;;;;5488425;26;19999;-73
2024/04/20 07:00:54;;;;;;;;;;;16.90;55.20;;;;;;5488460;26;19932;-71
2024/04/20 07:03:20;;;;;;;;;;;16.50;55.30;;;;;;5488510;26;19928;-71
2024/04/20 07:05:53;;;;;;;;;;;16.60;55.40;;;;;;5488676;26;20240;-71
2024/04/20 07:08:19;;;;;;;;;;;16.50;53.70;;;;;;5487096;26;19928;-71
2024/04/20 07:11:07;;;;;;;;;;;16.50;55.30;;;;;;5488900;26;20296;-71
2024/04/20 07:13:42;;;;;;;;;;;16.60;53.80;;;;;;5489176;26;19935;-70
2024/04/20 07:16:08;;;;;;;;;;;16.50;55.40;;;;;;5488881;26;19993;-71
2024/04/20 07:18:34;;;;;;;;;;;16.50;55.50;;;;;;5488926;26;19927;-70
2024/04/20 07:21:06;;;;;;;;;;;16.60;55.50;;;;;;5489186;26;19928;-76
2024/04/20 07:23:32;;;;;;;;;;;16.50;53.70;;;;;;5488475;26;19940;-77
2024/04/20 07:25:59;;;;;;;;;;;16.50;55.60;;;;;;5488579;26;19932;-77
2024/04/20 07:28:25;;;;;;;;;;;16.60;55.40;;;;;;5488520;26;20256;-77
2024/04/20 07:30:50;;;;;;;;;;;16.30;55.20;;;;;;5488447;26;19928;-76
2024/04/20 07:33:16;;;;;;;;;;;16.60;55.30;;;;;;5488670;26;19927;-76
2024/04/20 07:35:42;;;;;;;;;;;16.60;55.40;;;;;;5488197;26;20426;-77
2024/04/20 07:38:08;;;;;;;;;;;16.50;55.20;;;;;;5488466;26;19994;-80
2024/04/20 07:40:35;;;;;;;;;;;16.50;55.50;;;;;;5488484;26;20325;-76
2024/04/20 07:43:01;;;;;;;;;;;16.60;55.30;;;;;;5488636;26;19936;-76
2024/04/20 07:45:29;;;;;;;;;;;16.60;55.10;;;;;;5488569;26;19956;-78
2024/04/20 07:47:55;;;;;;;;;;;16.50;55.50;;;;;;5488473;26;19940;-76
2024/04/20 07:50:21;;;;;;;;;;;16.60;55.40;;;;;;5488336;26;20275;-76
2024/04/20 07:52:51;;;;;;;;;;;16.70;55.50;;;;;;5488522;26;20230;-76
2024/04/20 07:55:17;;;;;;;;;;;16.60;54.80;;;;;;5488254;26;19991;-76
2024/04/20 07:57:44;;;;;;;;;;;16.60;55.60;;;;;;5488207;26;19928;-76
2024/04/20 08:00:11;;;;;;;;;;;16.60;55.30;;;;;;5488197;26;20246;-76
2024/04/20 08:02:40;;;;;;;;;;;16.60;55.00;;;;;;5487741;26;19928;-76
2024/04/20 08:05:06;;;;;;;;;;;16.60;55.50;;;;;;5487547;26;19935;-76
2024/04/20 08:07:32;;;;;;;;;;;16.60;55.30;;;;;;5487370;26;20374;-76
2024/04/20 08:09:58;;;;;;;;;;;16.60;55.50;;;;;;5487613;26;19931;-76
2024/04/20 08:12:24;;;;;;;;;;;16.60;55.50;;;;;;5487831;26;19947;-76
2024/04/20 08:14:50;;;;;;;;;;;17.00;55.50;;;;;;5487987;26;19943;-76
2024/04/20 08:17:16;;;;;;;;;;;16.60;55.70;;;;;;5487908;26;20313;-76
2024/04/20 08:19:42;;;;;;;;;;;16.60;55.50;;;;;;5487121;26;19997;-77
2024/04/20 08:22:08;;;;;;;;;;;16.60;56.00;;;;;;5487502;26;19939;-76
2024/04/20 08:24:34;;;;;;;;;;;16.10;55.50;;;;;;5487353;26;20628;-76
2024/04/20 08:27:00;;;;;;;;;;;16.60;56.10;;;;;;5487394;26;19935;-76
2024/04/20 08:29:26;;;;;;;;;;;16.70;56.10;;;;;;5488168;26;20331;-72
2024/04/20 08:31:52;;;;;;;;;;;16.60;56.00;;;;;;5487161;26;19928;-73
2024/04/20 08:34:18;;;;;;;;;;;16.70;56.10;;;;;;5487375;26;19928;-72
2024/04/20 08:36:45;;;;;;;;;;;16.70;56.10;;;;;;5487402;26;19928;-70
2024/04/20 08:39:11;;;;;;;;;;;16.70;56.10;;;;;;5487363;26;20258;-70
2024/04/20 08:41:47;;;;;;;;;;;16.80;56.10;;;;;;5486914;26;19928;-72
2024/04/20 08:44:16;;;;;;;;;;;16.80;54.30;;;;;;5487305;26;19934;-73
2024/04/20 08:46:43;;;;;;;;;;;16.60;56.20;;;;;;5487774;26;19960;-73
2024/04/20 08:49:11;;;;;;;;;;;16.80;56.10;;;;;;5486926;26;19936;-72
2024/04/20 08:51:38;;;;;;;;;;;16.90;56.30;;;;;;5487064;26;19976;-72
2024/04/20 08:54:05;;;;;;;;;;;17.00;55.60;;;;;;5487243;26;19992;-72
2024/04/20 08:56:32;;;;;;;;;;;16.90;55.90;;;;;;5486917;26;20426;-72
2024/04/20 08:58:58;;;;;;;;;;;17.00;55.80;;;;;;5486773;26;20292;-72
2024/04/20 09:01:25;;;;;;;;;;;17.10;56.10;;;;;;5486638;26;19928;-72
2024/04/20 09:03:52;;;;;;;;;;;17.00;55.70;;;;;;5486496;26;19996;-72
2024/04/20 09:06:19;;;;;;;;;;;17.00;55.80;;;;;;5486229;26;20266;-72
2024/04/20 09:08:45;;;;;;;;;;;17.00;55.80;;;;;;5486646;26;19977;-72
2024/04/20 09:11:12;;;;;;;;;;;18.10;56.50;;;;;;5486469;26;19927;-72
2024/04/20 09:13:38;;;;;;;;;;;17.00;56.10;;;;;;5486821;26;19996;-72
2024/04/20 09:16:06;;;;;;;;;;;17.10;55.80;;;;;;5486565;26;20284;-72
2024/04/20 09:18:31;;;;;;;;;;;17.10;55.50;;;;;;5486869;26;19996;-72
2024/04/20 09:20:57;;;;;;;;;;;17.10;56.00;;;;;;5486565;26;20320;-74
2024/04/20 09:23:23;;;;;;;;;;;17.10;55.80;;;;;;5486268;26;19928;-74
2024/04/20 09:25:52;;;;;;;;;;;17.20;56.00;;;;;;5486324;26;19939;-74
2024/04/20 09:28:17;;;;;;;;;;;17.20;53.70;;;;;;5486134;26;19934;-72
2024/04/20 09:30:43;;;;;;;;;;;17.20;55.70;;;;;;5487146;26;20033;-72
2024/04/20 09:33:14;;;;;;;;;;;17.20;55.70;;;;;;5489905;26;19936;-73
2024/04/20 09:35:42;;;;;;;;;;;17.30;53.50;;;;;;5489853;26;19955;-72
2024/04/20 09:38:07;;;;;;;;;;;17.30;55.50;;;;;;5489732;26;19927;-72
2024/04/20 09:40:33;;;;;;;;;;;17.40;55.40;;;;;;5489860;26;19928;-72
2024/04/20 09:42:59;;;;;;;;;;;17.50;55.10;;;;;;5490367;26;20000;-73
2024/04/20 09:45:27;;;;;;;;;;;17.50;55.20;;;;;;5490415;26;19935;-72
2024/04/20 09:47:55;;;;;;;;;;;17.30;54.90;;;;;;5489812;26;20258;-73
2024/04/20 09:50:24;;;;;;;;;;;17.50;55.60;;;;;;5490239;26;20242;-73
2024/04/20 09:52:59;;;;;;;;;;;17.50;55.40;;;;;;5490074;26;19936;-72
2024/04/20 09:55:24;;;;;;;;;;;17.60;55.00;;;;;;5489743;26;19996;-73
2024/04/20 09:57:51;;;;;;;;;;;17.50;55.50;;;;;;5489875;26;19928;-73
2024/04/20 10:00:19;;;;;;;;;;;17.60;55.60;;;;;;5489838;26;20510;-72
2024/04/20 10:02:45;;;;;;;;;;;17.60;55.40;;;;;;5490131;26;20243;-72
2024/04/20 10:05:11;;;;;;;;;;;17.60;55.90;;;;;;5489549;26;20320;-73
2024/04/20 10:07:37;;;;;;;;;;;17.70;55.50;;;;;;5489363;26;19927;-73
2024/04/20 10:10:04;;;;;;;;;;;17.70;55.10;;;;;;5489822;26;19935;-73
2024/04/20 10:12:29;;;;;;;;;;;17.80;54.50;;;;;;5489267;26;19973;-72
2024/04/20 10:14:55;;;;;;;;;;;17.90;54.80;;;;;;5489647;26;19928;-72
2024/04/20 10:17:21;;;;;;;;;;;18.10;54.40;;;;;;5489574;26;19928;-73
2024/04/20 10:19:50;;;;;;;;;;;18.20;54.60;;;;;;5489487;26;19938;-72
2024/04/20 10:22:15;;;;;;;;;;;18.10;54.40;;;;;;5489668;26;19934;-71
2024/04/20 10:24:51;;;;;;;;;;;18.10;54.90;;;;;;5489784;26;19939;-72
2024/04/20 10:27:26;;;;;;;;;;;18.10;52.70;;;;;;5489376;26;19984;-70
2024/04/20 10:29:52;;;;;;;;;;;18.20;52.40;;;;;;5489520;26;19928;-70
2024/04/20 10:32:23;;;;;;;;;;;18.40;54.10;;;;;;5489630;26;19928;-69
2024/04/20 10:34:49;;;;;;;;;;;18.50;52.00;;;;;;5487595;26;20017;-71
2024/04/20 10:37:22;;;;;;;;;;;18.60;53.90;;;;;;5489162;26;19936;-72
2024/04/20 10:39:47;;;;;;;;;;;18.70;51.80;;;;;;5489836;26;19932;-71
2024/04/20 10:42:12;;;;;;;;;;;18.80;53.60;;;;;;5488968;26;20047;-72
2024/04/20 10:44:38;;;;;;;;;;;18.80;53.50;;;;;;5488958;26;20016;-71
2024/04/20 10:47:04;;;;;;;;;;;18.70;53.70;;;;;;5488916;26;19928;-71
2024/04/20 10:49:29;;;;;;;;;;;18.70;53.50;;;;;;5488988;26;19932;-71
2024/04/20 10:51:56;;;;;;;;;;;18.70;53.80;;;;;;5489012;26;19934;-71
2024/04/20 10:54:22;;;;;;;;;;;18.70;53.80;;;;;;5489019;26;19935;-71
2024/04/20 10:56:52;;;;;;;;;;;18.70;54.00;;;;;;5488929;26;20028;-71
2024/04/20 10:59:18;;;;;;;;;;;18.70;53.10;;;;;;5488841;26;19939;-72
2024/04/20 11:01:44;;;;;;;;;;;18.70;54.00;;;;;;5488780;26;19934;-72
2024/04/20 11:04:10;;;;;;;;;;;18.70;54.10;;;;;;5487006;26;19928;-73
2024/04/20 11:06:35;;;;;;;;;;;18.70;54.00;;;;;;5488789;26;19935;-73
2024/04/20 11:09:02;;;;;;;;;;;18.80;54.30;;;;;;5489541;26;19935;-73
2024/04/20 11:11:27;;;;;;;;;;;18.90;53.60;;;;;;5488871;26;19928;-73
2024/04/20 11:13:59;;;;;;;;;;;18.90;53.70;;;;;;5488966;26;20353;-73
2024/04/20 11:16:28;;;;;;;;;;;19.10;51.90;;;;;;5488537;26;19936;-73
2024/04/20 11:18:53;;;;;;;;;;;19.20;51.70;;;;;;5488729;26;19956;-73
2024/04/20 11:21:19;;;;;;;;;;;19.30;53.10;;;;;;5488969;26;19927;-73
2024/04/20 11:23:45;;;;;;;;;;;19.40;52.80;;;;;;5486676;26;19928;-73
2024/04/20 11:26:10;;;;;;;;;;;19.50;52.50;;;;;;5488758;26;20316;-73
2024/04/20 11:28:37;;;;;;;;;;;19.70;52.60;;;;;;5489035;26;19935;-73
2024/04/20 11:31:02;;;;;;;;;;;19.70;52.20;;;;;;5489023;26;20355;-73
2024/04/20 11:33:29;;;;;;;;;;;19.80;52.20;;;;;;5488522;26;19935;-73
2024/04/20 11:35:54;;;;;;;;;;;19.80;53.00;;;;;;5489284;26;19935;-73
2024/04/20 11:38:21;;;;;;;;;;;19.80;52.40;;;;;;5488401;26;19927;-73
2024/04/20 11:40:47;;;;;;;;;;;19.90;52.30;;;;;;5488876;26;20013;-73
2024/04/20 11:43:17;;;;;;;;;;;19.80;52.50;;;;;;5488904;26;19996;-72
2024/04/20 11:45:45;;;;;;;;;;;19.70;52.70;;;;;;5488723;26;19935;-73
2024/04/20 11:48:11;;;;;;;;;;;19.60;52.70;;;;;;5488910;26;19928;-73
2024/04/20 11:50:36;;;;;;;;;;;19.50;53.30;;;;;;5488669;26;20369;-73
2024/04/20 11:55:46;;;;;;;;;;;19.40;53.30;;;;;;5488551;26;19977;-73
2024/04/20 11:58:12;;;;;;;;;;;19.40;53.90;;;;;;5488585;26;19932;-72
2024/04/20 12:00:38;;;;;;;;;;;19.40;54.10;;;;;;5488741;26;19935;-73
2024/04/20 12:03:06;;;;;;;;;;;19.40;54.30;;;;;;5488264;26;20398;-73
2024/04/20 12:05:32;;;;;;;;;;;19.40;52.60;;;;;;5488561;26;19934;-73
2024/04/20 12:07:57;;;;;;;;;;;19.30;54.40;;;;;;5487782;26;19928;-73
2024/04/20 12:10:25;;;;;;;;;;;19.30;54.40;;;;;;5488192;26;19928;-73
2024/04/20 12:12:50;;;;;;;;;;;19.30;54.30;;;;;;5488403;26;20332;-73
2024/04/20 12:15:16;;;;;;;;;;;19.30;54.40;;;;;;5488390;26;20031;-73
2024/04/20 12:17:41;;;;;;;;;;;19.30;54.60;;;;;;5488347;26;19966;-73
2024/04/20 12:20:07;;;;;;;;;;;19.40;54.50;;;;;;5487938;26;19934;-73
2024/04/20 12:22:33;;;;;;;;;;;19.50;54.00;;;;;;5488011;26;19928;-73
2024/04/20 12:24:58;;;;;;;;;;;19.50;54.40;;;;;;5487957;26;19932;-73
2024/04/20 12:27:24;;;;;;;;;;;19.40;54.30;;;;;;5488104;26;19940;-73
2024/04/20 12:29:49;;;;;;;;;;;19.50;54.20;;;;;;5487859;26;19928;-73
2024/04/20 12:32:16;;;;;;;;;;;19.60;54.10;;;;;;5488204;26;19931;-74
2024/04/20 12:34:41;;;;;;;;;;;19.70;53.50;;;;;;5488425;26;19955;-73
2024/04/20 12:37:07;;;;;;;;;;;19.80;52.70;;;;;;5487999;26;19939;-74
2024/04/20 12:39:32;;;;;;;;;;;20.00;53.00;;;;;;5488015;26;19956;-73
2024/04/20 12:41:58;;;;;;;;;;;20.10;52.50;;;;;;5487586;26;19968;-74
2024/04/20 12:44:24;;;;;;;;;;;20.20;52.00;;;;;;5487729;26;19928;-74
2024/04/20 12:46:53;;;;;;;;;;;20.20;52.30;;;;;;5487998;26;19935;-75
2024/04/20 12:49:19;;;;;;;;;;;20.10;50.70;;;;;;5487245;26;20294;-75
2024/04/20 12:51:45;;;;;;;;;;;20.00;52.70;;;;;;5487049;26;20003;-75
2024/04/20 12:54:11;;;;;;;;;;;20.00;52.70;;;;;;5487050;26;19927;-74
2024/04/20 12:56:37;;;;;;;;;;;19.90;52.80;;;;;;5487543;26;19956;-74
2024/04/20 12:59:03;;;;;;;;;;;19.90;53.30;;;;;;5487230;26;20254;-74
2024/04/20 13:01:29;;;;;;;;;;;19.80;53.10;;;;;;5487671;26;19927;-74
2024/04/20 13:03:54;;;;;;;;;;;19.80;53.30;;;;;;5487441;26;19934;-74
2024/04/20 13:06:20;;;;;;;;;;;19.80;53.70;;;;;;5488919;26;20326;-76
2024/04/20 13:08:47;;;;;;;;;;;19.70;53.40;;;;;;5490402;26;20004;-74
2024/04/20 13:11:15;;;;;;;;;;;19.70;53.40;;;;;;5490594;26;20359;-74
2024/04/20 13:13:41;;;;;;;;;;;19.60;53.30;;;;;;5490650;26;20254;-72
2024/04/20 13:16:07;;;;;;;;;;;19.50;53.40;;;;;;5490176;26;20386;-75
2024/04/20 13:18:32;;;;;;;;;;;19.60;53.70;;;;;;5490268;26;19928;-73
2024/04/20 13:21:00;;;;;;;;;;;19.70;53.70;;;;;;5490193;26;19932;-73
2024/04/20 13:23:27;;;;;;;;;;;19.90;53.30;;;;;;5490068;26;19942;-74
2024/04/20 13:25:52;;;;;;;;;;;20.00;52.50;;;;;;5490188;26;20370;-74
2024/04/20 13:28:22;;;;;;;;;;;20.20;52.30;;;;;;5489991;26;19928;-74
2024/04/20 13:30:48;;;;;;;;;;;20.40;51.80;;;;;;5490502;26;19928;-73
2024/04/20 13:33:15;;;;;;;;;;;20.30;51.90;;;;;;5490066;26;19927;-74
2024/04/20 13:35:49;;;;;;;;;;;20.30;52.50;;;;;;5490375;26;19928;-74
2024/04/20 13:38:15;;;;;;;;;;;20.10;52.00;;;;;;5490362;26;19968;-74
2024/04/20 13:40:40;;;;;;;;;;;20.20;52.10;;;;;;5490004;26;19932;-75
2024/04/20 13:43:06;;;;;;;;;;;20.20;52.10;;;;;;5490065;26;19939;-74
2024/04/20 13:45:31;;;;;;;;;;;20.30;51.70;;;;;;5490008;26;20263;-74
2024/04/20 13:47:58;;;;;;;;;;;20.40;51.40;;;;;;5489775;26;19956;-74
2024/04/20 13:50:24;;;;;;;;;;;20.50;51.10;;;;;;5490113;26;20362;-74
2024/04/20 13:52:49;;;;;;;;;;;20.50;51.20;;;;;;5489882;26;19936;-74
2024/04/20 13:55:15;;;;;;;;;;;20.60;51.00;;;;;;5489816;26;19938;-74
2024/04/20 13:57:43;;;;;;;;;;;20.60;51.10;;;;;;5490054;26;19928;-74
2024/04/20 14:00:09;;;;;;;;;;;20.50;50.60;;;;;;5490070;26;20031;-75
2024/04/20 14:02:35;;;;;;;;;;;20.40;50.70;;;;;;5490187;26;19939;-74
2024/04/20 14:05:00;;;;;;;;;;;20.30;51.70;;;;;;5489739;26;19939;-74
2024/04/20 14:07:25;;;;;;;;;;;20.30;51.90;;;;;;5489680;26;19965;-74
2024/04/20 14:09:51;;;;;;;;;;;20.20;51.80;;;;;;5489922;26;20391;-74
2024/04/20 14:12:19;;;;;;;;;;;20.10;52.00;;;;;;5489765;26;19935;-74